Hakuhomaru — JJ4011 — position and weather

sailwx.info

Track history (hours):
 
Tides and Currents Weather Stations Pressure Air Temp Water Temp Dewpoint Dewpoint Depression Visibility Wind Speed Wind Dir Waves Ship Positions

Hakuhomaru

Last reported at 2016-Aug-24 22:33 UTC. Time now 2016-Aug-24 23:19 UTC.
Position N 34°42' E 135°18'.

Length 38 m; draft 3.3 m.

Type: Tug. MMSI: 431401584.

Date/timePositionNaut miles runAvg speedWind from/ knotsBaromVisibWave heightAir tempDewpointWater temp
2016-Aug-24 22:33N 34°42' E 135°18'3 3.3
2016-Aug-24 21:34N 34°41' E 135°14'2 1.6
2016-Aug-24 20:33N 34°41' E 135°12'0 0.0
2016-Aug-24 06:33N 34°41' E 135°12'0 0.1
2016-Aug-24 04:33N 34°41' E 135°12'4 3.9
2016-Aug-24 03:25N 34°41' E 135°18'0 0.3
2016-Aug-24 02:33N 34°41' E 135°17'0 0.0
2016-Aug-24 01:33N 34°41' E 135°17'3 3.3
2016-Aug-24 00:33N 34°41' E 135°14'1 1.4
2016-Aug-23 23:33N 34°41' E 135°12'0 0.0
2016-Aug-23 22:33N 34°41' E 135°12'0 0.0
2016-Aug-22 06:33N 34°41' E 135°12'0 0.0
2016-Aug-22 05:33N 34°41' E 135°12'0 0.0
2016-Aug-22 04:33N 34°41' E 135°12'0 0.0
2016-Aug-22 03:33N 34°41' E 135°12'0 0.0
2016-Aug-22 02:33N 34°41' E 135°12'2 1.9
2016-Aug-22 01:33N 34°40' E 135°15'2 1.9
2016-Aug-22 00:33N 34°41' E 135°12'0 0.0
2016-Aug-21 23:33N 34°41' E 135°12'0 0.0
2016-Aug-21 22:33N 34°41' E 135°12'0 0.0
2016-Aug-21 21:33N 34°41' E 135°12'0 0.4
2016-Aug-21 20:33N 34°41' E 135°12'0 0.0
2016-Aug-21 05:33N 34°41' E 135°12'0 0.0
2016-Aug-21 04:33N 34°41' E 135°12'0 0.0
2016-Aug-21 03:33N 34°41' E 135°12'0 0.0
2016-Aug-21 02:33N 34°41' E 135°12'0 0.0
2016-Aug-21 01:34N 34°41' E 135°12'1 0.7
2016-Aug-21 00:33N 34°41' E 135°13'2 2.2
2016-Aug-20 23:33N 34°40' E 135°15'2 2.3
2016-Aug-20 22:33N 34°41' E 135°12'0 0.0
2016-Aug-20 21:34N 34°41' E 135°12'1 0.1
2016-Aug-20 09:33N 34°41' E 135°13'4 3.5
2016-Aug-20 08:33N 34°39' E 135°16'4 3.9
2016-Aug-20 07:33N 34°41' E 135°12'0 0.0
2016-Aug-20 06:33N 34°41' E 135°12'0 0.0
2016-Aug-20 05:33N 34°41' E 135°12'0 0.0
2016-Aug-20 04:33N 34°41' E 135°12'0 0.0
2016-Aug-20 03:33N 34°41' E 135°12'0 0.0
2016-Aug-20 02:33N 34°41' E 135°12'0 0.0
2016-Aug-20 01:33N 34°41' E 135°12'0 0.0
2016-Aug-20 00:33N 34°41' E 135°12'0 0.0
2016-Aug-19 23:33N 34°41' E 135°12'4 4.3
2016-Aug-19 22:33N 34°41' E 135°17'1 0.6
2016-Aug-19 21:33N 34°41' E 135°18'4 4.4
2016-Aug-19 20:33N 34°41' E 135°12'0 0.0
2016-Aug-19 06:33N 34°41' E 135°12'0 0.0
2016-Aug-19 05:33N 34°41' E 135°12'2 2.4
2016-Aug-19 04:33N 34°42' E 135°15'2 2.4
2016-Aug-19 03:33N 34°41' E 135°12'0 0.0
2016-Aug-19 02:33N 34°41' E 135°12'0 0.0
2016-Aug-19 01:33N 34°41' E 135°12'0 0.0
2016-Aug-19 00:33N 34°41' E 135°12'0 0.0
2016-Aug-18 23:33N 34°41' E 135°12'2 2.4
2016-Aug-18 22:33N 34°41' E 135°15'1 0.9
2016-Aug-18 21:33N 34°41' E 135°14'1 1.5
2016-Aug-18 20:34N 34°41' E 135°12'0 0.0
2016-Aug-18 11:20N 34°41' E 135°12'1 1.9
2016-Aug-18 10:33N 34°40' E 135°14'0 0.1
2016-Aug-18 09:33N 34°40' E 135°14'0 0.0
2016-Aug-18 08:33N 34°40' E 135°14'1 0.5
2016-Aug-18 07:33N 34°40' E 135°14'1 1.5
2016-Aug-18 06:33N 34°41' E 135°12'0 0.0
2016-Aug-18 05:33N 34°41' E 135°12'0 0.0
2016-Aug-18 04:33N 34°41' E 135°12'0 0.0
2016-Aug-18 03:33N 34°41' E 135°12'4 4.1
2016-Aug-18 02:33N 34°41' E 135°17'0 0.4
2016-Aug-18 01:33N 34°41' E 135°17'0 0.0
2016-Aug-18 00:33N 34°41' E 135°17'1 0.9
2016-Aug-17 23:33N 34°41' E 135°17'1 1.3
2016-Aug-17 22:33N 34°41' E 135°15'0 0.5
2016-Aug-17 21:33N 34°40' E 135°14'2 1.8
2016-Aug-17 20:33N 34°41' E 135°12'0 0.0
2016-Aug-17 01:33N 34°41' E 135°12'1 0.2
2016-Aug-16 21:33N 34°40' E 135°13'2 1.5
2016-Aug-16 20:33N 34°40' E 135°15'2 2.2
2016-Aug-16 19:33N 34°41' E 135°12'0 0.0
2016-Aug-16 18:33N 34°41' E 135°12'0 0.0
2016-Aug-16 17:33N 34°41' E 135°12'0 0.0
2016-Aug-16 16:33N 34°41' E 135°12'1 1.0
2016-Aug-16 15:33N 34°41' E 135°13'2 1.5
2016-Aug-16 14:33N 34°40' E 135°15'2 2.1
2016-Aug-16 13:33N 34°41' E 135°12'0 0.0
2016-Aug-16 12:33N 34°41' E 135°12'0 0.0
2016-Aug-16 11:33N 34°41' E 135°12'0 0.0
2016-Aug-16 10:33N 34°41' E 135°12'9 9.5
2016-Aug-16 09:33N 34°42' E 135°24'3 3.1
2016-Aug-16 08:33N 34°41' E 135°20'3 2.6
2016-Aug-16 07:33N 34°41' E 135°17'2 0.8
2016-Aug-16 04:33N 34°39' E 135°14'1 0.6
2016-Aug-16 03:33N 34°40' E 135°15'0 0.0
2016-Aug-16 02:33N 34°40' E 135°15'0 0.0
2016-Aug-16 01:33N 34°40' E 135°15'0 0.0
2016-Aug-16 00:34N 34°40' E 135°15'2 2.3
2016-Aug-15 23:33N 34°41' E 135°12'5 4.6
2016-Aug-15 22:33N 34°42' E 135°18'2 1.6
2016-Aug-15 21:33N 34°42' E 135°16'3 3.2
2016-Aug-15 20:34N 34°41' E 135°12'  
Track history (hours):
 
Tides and Currents Weather Stations Pressure Air Temp Water Temp Dewpoint Dewpoint Depression Visibility Wind Speed Wind Dir Waves Ship Positions

Hakuhomaru

Last reported at 2016-Aug-24 22:33 UTC. Time now 2016-Aug-24 23:19 UTC.
Position N 34°42' E 135°18'.

Length 38 m; draft 3.3 m.

Type: Tug. MMSI: 431401584.

Date/timePositionNaut miles runAvg speedWind from/ knotsBaromVisibWave heightAir tempDewpointWater temp
2016-Aug-24 22:33N 34°42' E 135°18'3 3.3
2016-Aug-24 21:34N 34°41' E 135°14'2 1.6
2016-Aug-24 20:33N 34°41' E 135°12'0 0.0
2016-Aug-24 06:33N 34°41' E 135°12'0 0.1
2016-Aug-24 04:33N 34°41' E 135°12'4 3.9
2016-Aug-24 03:25N 34°41' E 135°18'0 0.3
2016-Aug-24 02:33N 34°41' E 135°17'0 0.0
2016-Aug-24 01:33N 34°41' E 135°17'3 3.3
2016-Aug-24 00:33N 34°41' E 135°14'1 1.4
2016-Aug-23 23:33N 34°41' E 135°12'0 0.0
2016-Aug-23 22:33N 34°41' E 135°12'0 0.0
2016-Aug-22 06:33N 34°41' E 135°12'0 0.0
2016-Aug-22 05:33N 34°41' E 135°12'0 0.0
2016-Aug-22 04:33N 34°41' E 135°12'0 0.0
2016-Aug-22 03:33N 34°41' E 135°12'0 0.0
2016-Aug-22 02:33N 34°41' E 135°12'2 1.9
2016-Aug-22 01:33N 34°40' E 135°15'2 1.9
2016-Aug-22 00:33N 34°41' E 135°12'0 0.0
2016-Aug-21 23:33N 34°41' E 135°12'0 0.0
2016-Aug-21 22:33N 34°41' E 135°12'0 0.0
2016-Aug-21 21:33N 34°41' E 135°12'0 0.4
2016-Aug-21 20:33N 34°41' E 135°12'0 0.0
2016-Aug-21 05:33N 34°41' E 135°12'0 0.0
2016-Aug-21 04:33N 34°41' E 135°12'0 0.0
2016-Aug-21 03:33N 34°41' E 135°12'0 0.0
2016-Aug-21 02:33N 34°41' E 135°12'0 0.0
2016-Aug-21 01:34N 34°41' E 135°12'1 0.7
2016-Aug-21 00:33N 34°41' E 135°13'2 2.2
2016-Aug-20 23:33N 34°40' E 135°15'2 2.3
2016-Aug-20 22:33N 34°41' E 135°12'0 0.0
2016-Aug-20 21:34N 34°41' E 135°12'1 0.1
2016-Aug-20 09:33N 34°41' E 135°13'4 3.5
2016-Aug-20 08:33N 34°39' E 135°16'4 3.9
2016-Aug-20 07:33N 34°41' E 135°12'0 0.0
2016-Aug-20 06:33N 34°41' E 135°12'0 0.0
2016-Aug-20 05:33N 34°41' E 135°12'0 0.0
2016-Aug-20 04:33N 34°41' E 135°12'0 0.0
2016-Aug-20 03:33N 34°41' E 135°12'0 0.0
2016-Aug-20 02:33N 34°41' E 135°12'0 0.0
2016-Aug-20 01:33N 34°41' E 135°12'0 0.0
2016-Aug-20 00:33N 34°41' E 135°12'0 0.0
2016-Aug-19 23:33N 34°41' E 135°12'4 4.3
2016-Aug-19 22:33N 34°41' E 135°17'1 0.6
2016-Aug-19 21:33N 34°41' E 135°18'4 4.4
2016-Aug-19 20:33N 34°41' E 135°12'0 0.0
2016-Aug-19 06:33N 34°41' E 135°12'0 0.0
2016-Aug-19 05:33N 34°41' E 135°12'2 2.4
2016-Aug-19 04:33N 34°42' E 135°15'2 2.4
2016-Aug-19 03:33N 34°41' E 135°12'0 0.0
2016-Aug-19 02:33N 34°41' E 135°12'0 0.0
2016-Aug-19 01:33N 34°41' E 135°12'0 0.0
2016-Aug-19 00:33N 34°41' E 135°12'0 0.0
2016-Aug-18 23:33N 34°41' E 135°12'2 2.4
2016-Aug-18 22:33N 34°41' E 135°15'1 0.9
2016-Aug-18 21:33N 34°41' E 135°14'1 1.5
2016-Aug-18 20:34N 34°41' E 135°12'0 0.0
2016-Aug-18 11:20N 34°41' E 135°12'1 1.9
2016-Aug-18 10:33N 34°40' E 135°14'0 0.1
2016-Aug-18 09:33N 34°40' E 135°14'0 0.0
2016-Aug-18 08:33N 34°40' E 135°14'1 0.5
2016-Aug-18 07:33N 34°40' E 135°14'1 1.5
2016-Aug-18 06:33N 34°41' E 135°12'0 0.0
2016-Aug-18 05:33N 34°41' E 135°12'0 0.0
2016-Aug-18 04:33N 34°41' E 135°12'0 0.0
2016-Aug-18 03:33N 34°41' E 135°12'4 4.1
2016-Aug-18 02:33N 34°41' E 135°17'0 0.4
2016-Aug-18 01:33N 34°41' E 135°17'0 0.0
2016-Aug-18 00:33N 34°41' E 135°17'1 0.9
2016-Aug-17 23:33N 34°41' E 135°17'1 1.3
2016-Aug-17 22:33N 34°41' E 135°15'0 0.5
2016-Aug-17 21:33N 34°40' E 135°14'2 1.8
2016-Aug-17 20:33N 34°41' E 135°12'0 0.0
2016-Aug-17 01:33N 34°41' E 135°12'1 0.2
2016-Aug-16 21:33N 34°40' E 135°13'2 1.5
2016-Aug-16 20:33N 34°40' E 135°15'2 2.2
2016-Aug-16 19:33N 34°41' E 135°12'0 0.0
2016-Aug-16 18:33N 34°41' E 135°12'0 0.0
2016-Aug-16 17:33N 34°41' E 135°12'0 0.0
2016-Aug-16 16:33N 34°41' E 135°12'1 1.0
2016-Aug-16 15:33N 34°41' E 135°13'2 1.5
2016-Aug-16 14:33N 34°40' E 135°15'2 2.1
2016-Aug-16 13:33N 34°41' E 135°12'0 0.0
2016-Aug-16 12:33N 34°41' E 135°12'0 0.0
2016-Aug-16 11:33N 34°41' E 135°12'0 0.0
2016-Aug-16 10:33N 34°41' E 135°12'9 9.5
2016-Aug-16 09:33N 34°42' E 135°24'3 3.1
2016-Aug-16 08:33N 34°41' E 135°20'3 2.6
2016-Aug-16 07:33N 34°41' E 135°17'2 0.8
2016-Aug-16 04:33N 34°39' E 135°14'1 0.6
2016-Aug-16 03:33N 34°40' E 135°15'0 0.0
2016-Aug-16 02:33N 34°40' E 135°15'0 0.0
2016-Aug-16 01:33N 34°40' E 135°15'0 0.0
2016-Aug-16 00:34N 34°40' E 135°15'2 2.3
2016-Aug-15 23:33N 34°41' E 135°12'5 4.6
2016-Aug-15 22:33N 34°42' E 135°18'2 1.6
2016-Aug-15 21:33N 34°42' E 135°16'3 3.2
2016-Aug-15 20:34N 34°41' E 135°12'  

Dump ship's entire track history